createdAt,value
2019-04-01T00:00:57.425Z,2.69
2019-04-01T00:01:57.445Z,2.8
2019-04-01T00:02:57.386Z,2.77
2019-04-01T00:03:57.375Z,2.76
2019-04-01T00:04:57.111Z,2.8
2019-04-01T00:05:57.347Z,2.8
2019-04-01T00:06:57.393Z,2.67
2019-04-01T00:07:57.314Z,2.65
2019-04-01T00:08:57.300Z,2.59
2019-04-01T00:09:57.283Z,2.6
2019-04-01T00:10:57.263Z,2.6
2019-04-01T00:11:57.249Z,2.54
2019-04-01T00:12:56.736Z,2.58
2019-04-01T00:13:57.211Z,2.55
2019-04-01T00:14:57.193Z,2.47
2019-04-01T00:15:57.180Z,2.45
2019-04-01T00:16:57.163Z,2.47
2019-04-01T00:17:57.146Z,2.34
2019-04-01T00:19:08.159Z,2.34
2019-04-01T00:19:57.116Z,2.34
2019-04-01T00:20:57.100Z,2.34
2019-04-01T00:21:57.083Z,2.24
2019-04-01T00:22:57.523Z,2.23
2019-04-01T00:23:57.050Z,2.23
2019-04-01T00:24:57.060Z,2.27
2019-04-01T00:25:57.017Z,2.16
2019-04-01T00:26:57.002Z,2.13
2019-04-01T00:27:56.984Z,2.18
2019-04-01T00:28:56.725Z,2.22
2019-04-01T00:29:56.973Z,2.15
2019-04-01T00:30:56.959Z,2.12
2019-04-01T00:31:56.669Z,2.08
2019-04-01T00:32:56.672Z,2.05
2019-04-01T00:33:56.891Z,2.11
2019-04-01T00:34:56.874Z,2.09
2019-04-01T00:35:56.851Z,2.12
2019-04-01T00:36:56.838Z,2.01
2019-04-01T00:37:56.815Z,1.93
2019-04-01T00:38:56.800Z,1.86
2019-04-01T00:39:56.783Z,1.97
2019-04-01T00:40:56.771Z,1.84
2019-04-01T00:41:56.751Z,1.87
2019-04-01T00:42:56.739Z,1.86
2019-04-01T00:43:56.729Z,1.79
2019-04-01T00:44:56.459Z,1.83
2019-04-01T00:45:56.685Z,1.72
2019-04-01T00:46:56.423Z,1.74
2019-04-01T00:47:56.426Z,1.74
2019-04-01T00:48:56.633Z,1.71
2019-04-01T00:49:56.370Z,1.68
2019-04-01T00:50:56.602Z,1.56
2019-04-01T00:51:56.583Z,1.6
2019-04-01T00:52:56.565Z,1.6
2019-04-01T00:53:56.557Z,1.65
2019-04-01T00:54:56.534Z,1.54
2019-04-01T00:55:56.774Z,1.58
2019-04-01T00:56:56.504Z,1.53
2019-04-01T00:57:56.480Z,1.58
2019-04-01T00:58:56.466Z,1.61
2019-04-01T00:59:56.522Z,1.54
2019-04-01T01:00:56.436Z,1.47
2019-04-01T01:01:56.184Z,1.5
2019-04-01T01:02:56.250Z,1.53
2019-04-01T01:03:56.411Z,1.38
2019-04-01T01:04:56.365Z,1.44
2019-04-01T01:05:56.347Z,1.5
2019-04-01T01:06:56.334Z,1.44
2019-04-01T01:07:56.133Z,1.53
2019-04-01T01:08:56.302Z,1.5
2019-04-01T01:09:56.282Z,1.47
2019-04-01T01:10:56.030Z,1.42
2019-04-01T01:11:56.247Z,1.39
2019-04-01T01:12:56.229Z,1.39
2019-04-01T01:13:56.214Z,1.28
2019-04-01T01:14:56.210Z,1.33
2019-04-01T01:15:56.332Z,1.26
2019-04-01T01:16:56.165Z,1.28
2019-04-01T01:17:55.896Z,1.35
2019-04-01T01:18:56.125Z,1.28
2019-04-01T01:19:55.616Z,1.24
2019-04-01T01:20:56.088Z,1.26
2019-04-01T01:21:55.833Z,1.22
2019-04-01T01:22:56.059Z,1.21
2019-04-01T01:23:55.822Z,1.28
2019-04-01T01:24:56.025Z,1.21
2019-04-01T01:25:56.007Z,1.26
2019-04-01T01:26:56.007Z,1.24
2019-04-01T01:27:55.745Z,1.24
2019-04-01T01:28:55.954Z,1.26
2019-04-01T01:29:55.932Z,1.32
2019-04-01T01:30:55.914Z,1.32
2019-04-01T01:31:55.902Z,1.3
2019-04-01T01:32:55.892Z,1.32
2019-04-01T01:33:55.864Z,1.38
2019-04-01T01:34:55.848Z,1.35
2019-04-01T01:35:55.840Z,1.33
2019-04-01T01:36:55.816Z,1.47
2019-04-01T01:37:55.546Z,1.36
2019-04-01T01:38:55.790Z,1.42
2019-04-01T01:39:55.759Z,1.44
2019-04-01T01:40:55.742Z,1.46
2019-04-01T01:41:55.730Z,1.57
2019-04-01T01:42:55.722Z,1.51
2019-04-01T01:43:55.692Z,1.51
2019-04-01T01:44:55.679Z,1.57
2019-04-01T01:45:55.665Z,1.51
2019-04-01T01:46:55.401Z,1.54
2019-04-01T01:47:55.630Z,1.56
2019-04-01T01:48:55.608Z,1.6
2019-04-01T01:49:55.604Z,1.6
2019-04-01T01:50:55.326Z,1.69
2019-04-01T01:51:55.556Z,1.66
2019-04-01T01:52:55.540Z,1.72
2019-04-01T01:53:55.522Z,1.86
2019-04-01T01:54:55.512Z,1.86
2019-04-01T01:55:55.489Z,1.92
2019-04-01T01:56:55.468Z,1.98
2019-04-01T01:57:55.453Z,2.11
2019-04-01T01:58:55.451Z,2.12
2019-04-01T01:59:55.419Z,2.15
2019-04-01T02:00:55.403Z,2.13
2019-04-01T02:01:55.389Z,2.26
2019-04-01T02:02:55.366Z,2.36
2019-04-01T02:03:55.354Z,2.34
2019-04-01T02:04:55.086Z,2.3
2019-04-01T02:05:55.318Z,2.41
2019-04-01T02:06:55.299Z,2.41
2019-04-01T02:07:55.285Z,2.34
2019-04-01T02:08:55.269Z,2.42
2019-04-01T02:09:55.000Z,2.41
2019-04-01T02:10:55.231Z,2.31
2019-04-01T02:11:55.218Z,2.4
2019-04-01T02:12:55.201Z,2.41
2019-04-01T02:13:55.181Z,2.34
2019-04-01T02:14:55.164Z,2.34
2019-04-01T02:15:55.152Z,2.38
2019-04-01T02:16:55.130Z,2.36
2019-04-01T02:17:55.131Z,2.36
2019-04-01T02:18:55.104Z,2.3
2019-04-01T02:19:54.589Z,2.36
2019-04-01T02:20:55.062Z,2.44
2019-04-01T02:21:55.046Z,2.51
2019-04-01T02:22:55.028Z,2.48
2019-04-01T02:23:55.010Z,2.59
2019-04-01T02:24:55.001Z,2.55
2019-04-01T02:25:54.981Z,2.52
2019-04-01T02:26:54.964Z,2.55
2019-04-01T02:27:54.960Z,2.63
2019-04-01T02:28:54.926Z,2.73
2019-04-01T02:29:54.911Z,2.67
2019-04-01T02:30:54.668Z,2.73
2019-04-01T02:31:54.639Z,2.76
2019-04-01T02:32:54.870Z,2.78
2019-04-01T02:33:54.609Z,2.81
2019-04-01T02:34:54.604Z,2.83
2019-04-01T02:35:54.813Z,2.87
2019-04-01T02:36:54.806Z,2.78
2019-04-01T02:37:54.566Z,2.85
2019-04-01T02:38:54.778Z,2.93
2019-04-01T02:39:54.770Z,2.84
2019-04-01T02:40:54.746Z,2.83
2019-04-01T02:41:54.728Z,2.85
2019-04-01T02:42:54.701Z,2.83
2019-04-01T02:43:54.686Z,2.87
2019-04-01T02:44:54.684Z,2.88
2019-04-01T02:45:54.659Z,2.84
2019-04-01T02:46:54.654Z,2.93
2019-04-01T02:47:54.623Z,2.85
2019-04-01T02:48:54.352Z,2.88
2019-04-01T02:49:54.582Z,2.81
2019-04-01T02:50:54.580Z,2.91
2019-04-01T02:51:54.572Z,2.9
2019-04-01T02:52:54.546Z,2.84
2019-04-01T02:53:54.537Z,2.84
2019-04-01T02:54:54.503Z,2.83
2019-04-01T02:55:54.507Z,2.8
2019-04-01T02:56:54.475Z,2.73
2019-04-01T02:57:54.454Z,2.81
2019-04-01T02:58:54.468Z,2.72
2019-04-01T02:59:54.426Z,2.67
2019-04-01T03:00:54.409Z,2.65
2019-04-01T03:01:54.399Z,2.66
2019-04-01T03:02:54.367Z,2.67
2019-04-01T03:03:54.359Z,2.69
2019-04-01T03:04:54.089Z,2.55
2019-04-01T03:05:54.325Z,2.55
2019-04-01T03:06:54.307Z,2.55
2019-04-01T03:07:54.294Z,2.54
2019-04-01T03:08:54.293Z,2.51
2019-04-01T03:09:54.284Z,2.51
2019-04-01T03:10:54.244Z,2.48
2019-04-01T03:11:54.224Z,2.45
2019-04-01T03:12:54.249Z,2.38
2019-04-01T03:13:54.202Z,2.29
2019-04-01T03:14:54.176Z,2.36
2019-04-01T03:15:54.169Z,2.26
2019-04-01T03:16:54.177Z,2.29
2019-04-01T03:17:53.660Z,2.24
2019-04-01T03:18:53.862Z,2.29
2019-04-01T03:19:54.215Z,2.27
2019-04-01T03:20:54.072Z,2.27
2019-04-01T03:21:54.106Z,2.2
2019-04-01T03:22:54.050Z,2.18
2019-04-01T03:23:54.053Z,2.15
2019-04-01T03:24:53.764Z,2.22
2019-04-01T03:25:53.993Z,2.16
2019-04-01T03:26:53.975Z,2.15
2019-04-01T03:27:53.726Z,2.22
2019-04-01T03:28:53.944Z,2.22
2019-04-01T03:29:53.927Z,2.24
2019-04-01T03:30:53.932Z,2.2
2019-04-01T03:31:53.905Z,2.16
2019-04-01T03:32:53.884Z,2.29
2019-04-01T03:33:53.865Z,2.16
2019-04-01T03:34:53.964Z,2.13
2019-04-01T03:35:53.824Z,2.16
2019-04-01T03:36:53.955Z,2.24
2019-04-01T03:37:53.794Z,2.24
2019-04-01T03:38:53.792Z,2.18
2019-04-01T03:39:53.769Z,2.16
2019-04-01T03:40:53.739Z,2.16
2019-04-01T03:41:53.739Z,2.16
2019-04-01T03:42:53.458Z,2.16
2019-04-01T03:43:53.684Z,2.18
2019-04-01T03:44:57.710Z,2.16
2019-04-01T03:45:53.651Z,2.22
2019-04-01T03:46:53.643Z,2.16
2019-04-01T03:47:53.376Z,2.18
2019-04-01T03:48:53.613Z,2.05
2019-04-01T03:49:53.352Z,2.06
2019-04-01T03:50:53.569Z,2.05
2019-04-01T03:51:53.548Z,2.04
2019-04-01T03:52:53.547Z,2.08
2019-04-01T03:53:53.517Z,1.94
2019-04-01T03:54:53.528Z,1.87
2019-04-01T03:55:53.483Z,1.86
2019-04-01T03:56:53.469Z,1.86
2019-04-01T03:57:53.452Z,1.75
2019-04-01T03:58:53.450Z,1.78
2019-04-01T03:59:53.522Z,1.71
2019-04-01T04:00:53.409Z,1.69
2019-04-01T04:01:53.394Z,1.68
2019-04-01T04:02:53.373Z,1.64
2019-04-01T04:03:53.108Z,1.56
2019-04-01T04:04:53.333Z,1.54
2019-04-01T04:05:53.351Z,1.53
2019-04-01T04:06:53.297Z,1.56
2019-04-01T04:07:53.299Z,1.47
2019-04-01T04:08:53.273Z,1.4
2019-04-01T04:09:53.244Z,1.53
2019-04-01T04:10:53.231Z,1.4
2019-04-01T04:11:53.236Z,1.35
2019-04-01T04:12:53.202Z,1.35
2019-04-01T04:13:53.175Z,1.28
2019-04-01T04:14:55.980Z,1.3
2019-04-01T04:15:52.897Z,1.32
2019-04-01T04:16:53.129Z,1.29
2019-04-01T04:17:53.264Z,1.2
2019-04-01T04:18:53.095Z,1.24
2019-04-01T04:19:53.081Z,1.26
2019-04-01T04:20:53.059Z,1.26
2019-04-01T04:21:53.057Z,1.29
2019-04-01T04:22:53.056Z,1.3
2019-04-01T04:23:53.047Z,1.24
2019-04-01T04:24:52.988Z,1.24
2019-04-01T04:25:52.976Z,1.24
2019-04-01T04:26:52.962Z,1.26
2019-04-01T04:27:52.943Z,1.24
2019-04-01T04:28:52.916Z,1.22
2019-04-01T04:29:52.928Z,1.18
2019-04-01T04:30:52.909Z,1.21
2019-04-01T04:31:52.865Z,1.28
2019-04-01T04:32:52.868Z,1.29
2019-04-01T04:33:52.842Z,1.24
2019-04-01T04:34:56.702Z,1.21
2019-04-01T04:35:52.800Z,1.29
2019-04-01T04:36:52.783Z,1.29
2019-04-01T04:37:52.767Z,1.24
2019-04-01T04:38:52.760Z,1.28
2019-04-01T04:39:52.725Z,1.29
2019-04-01T04:40:52.473Z,1.36
2019-04-01T04:41:52.695Z,1.36
2019-04-01T04:42:52.676Z,1.4
2019-04-01T04:43:52.657Z,1.32
2019-04-01T04:44:52.645Z,1.3
2019-04-01T04:45:52.629Z,1.32
2019-04-01T04:46:52.609Z,1.36
2019-04-01T04:47:52.594Z,1.33
2019-04-01T04:48:52.574Z,1.33
2019-04-01T04:49:52.554Z,1.36
2019-04-01T04:50:52.545Z,1.21
2019-04-01T04:51:52.517Z,1.28
2019-04-01T04:52:52.254Z,1.24
2019-04-01T04:53:52.480Z,1.17
2019-04-01T04:54:52.470Z,1.21
2019-04-01T04:55:52.451Z,1.15
2019-04-01T04:56:52.429Z,1.11
2019-04-01T04:57:52.412Z,1.1
2019-04-01T04:58:51.899Z,1.02
2019-04-01T04:59:52.375Z,1.07
2019-04-01T05:00:52.374Z,1.02
2019-04-01T05:01:52.107Z,1.08
2019-04-01T05:02:52.080Z,1.1
2019-04-01T05:03:52.310Z,1.02
2019-04-01T05:04:52.291Z,1.07
2019-04-01T05:05:52.287Z,0.96
2019-04-01T05:06:52.256Z,1.03
2019-04-01T05:07:52.282Z,0.97
2019-04-01T05:08:51.979Z,1.03
2019-04-01T05:09:51.953Z,0.93
2019-04-01T05:10:52.183Z,0.97
2019-04-01T05:11:52.168Z,0.97
2019-04-01T05:12:51.907Z,0.97
2019-04-01T05:13:52.385Z,1.07
2019-04-01T05:14:52.114Z,1.08
2019-04-01T05:15:52.097Z,1.08
2019-04-01T05:16:51.833Z,1.07
2019-04-01T05:17:52.061Z,1.02
2019-04-01T05:18:52.041Z,1
2019-04-01T05:19:52.028Z,1.07
2019-04-01T05:20:52.020Z,1.03
2019-04-01T05:21:51.998Z,1.08
2019-04-01T05:22:51.977Z,1.03
2019-04-01T05:23:51.955Z,1.03
2019-04-01T05:24:51.947Z,1.08
2019-04-01T05:25:51.925Z,1.04
2019-04-01T05:26:51.908Z,1.1
2019-04-01T05:27:51.892Z,1.14
2019-04-01T05:28:51.867Z,1.15
2019-04-01T05:29:51.855Z,1.15
2019-04-01T05:30:51.836Z,1.11
2019-04-01T05:31:51.857Z,1.15
2019-04-01T05:32:51.557Z,1.24
2019-04-01T05:34:00.083Z,1.21
2019-04-01T05:34:51.771Z,1.24
2019-04-01T05:35:51.749Z,1.3
2019-04-01T05:36:51.755Z,1.26
2019-04-01T05:37:51.728Z,1.28
2019-04-01T05:38:51.445Z,1.29
2019-04-01T05:39:51.677Z,1.17
2019-04-01T05:40:51.668Z,1.21
2019-04-01T05:41:51.644Z,1.24
2019-04-01T05:42:51.622Z,1.33
2019-04-01T05:43:51.607Z,1.3
2019-04-01T05:44:51.589Z,1.33
2019-04-01T05:45:51.335Z,1.4
2019-04-01T05:46:51.558Z,1.5
2019-04-01T05:47:51.289Z,1.5
2019-04-01T05:48:51.519Z,1.46
2019-04-01T05:49:51.500Z,1.48
2019-04-01T05:50:51.493Z,1.5
2019-04-01T05:51:51.466Z,1.54
2019-04-01T05:52:51.452Z,1.61
2019-04-01T05:53:51.186Z,1.66
2019-04-01T05:54:51.419Z,1.69
2019-04-01T05:55:51.157Z,1.72
2019-04-01T05:56:51.141Z,1.74
2019-04-01T05:57:51.370Z,1.72
2019-04-01T05:58:51.351Z,1.87
2019-04-01T05:59:51.330Z,1.86
2019-04-01T06:00:51.130Z,1.93
2019-04-01T06:01:51.292Z,2.02
2019-04-01T06:02:51.029Z,2.01
2019-04-01T06:03:51.265Z,2.02
2019-04-01T06:04:51.256Z,2.15
2019-04-01T06:05:51.223Z,2.05
2019-04-01T06:06:53.725Z,2.05
2019-04-01T06:07:51.194Z,2.13
2019-04-01T06:08:50.925Z,2.12
2019-04-01T06:09:51.157Z,2.16
2019-04-01T06:10:50.890Z,2.09
2019-04-01T06:11:51.125Z,2.11
2019-04-01T06:12:51.106Z,2.06
2019-04-01T06:13:51.098Z,2.2
2019-04-01T06:14:51.070Z,2.15
2019-04-01T06:15:51.052Z,2.16
2019-04-01T06:16:50.794Z,2.27
2019-04-01T06:17:51.043Z,2.27
2019-04-01T06:18:51.001Z,2.33
2019-04-01T06:19:50.992Z,2.36
2019-04-01T06:20:50.967Z,2.31
2019-04-01T06:21:50.950Z,2.33
2019-04-01T06:22:50.934Z,2.44
2019-04-01T06:23:50.917Z,2.45
2019-04-01T06:24:50.904Z,2.55
2019-04-01T06:25:50.890Z,2.59
2019-04-01T06:26:50.870Z,2.51
2019-04-01T06:27:50.604Z,2.6
2019-04-01T06:28:50.596Z,2.69
2019-04-01T06:29:50.816Z,2.67
2019-04-01T06:30:50.557Z,2.73
2019-04-01T06:31:50.790Z,2.78
2019-04-01T06:32:50.773Z,2.8
2019-04-01T06:33:50.755Z,2.88
2019-04-01T06:34:57.626Z,3.05
2019-04-01T06:35:50.721Z,3.21
2019-04-01T06:36:50.709Z,3.29
2019-04-01T06:37:50.686Z,3.51
2019-04-01T06:38:50.757Z,3.81
2019-04-01T06:39:50.649Z,4.02
2019-04-01T06:40:50.639Z,4.14
2019-04-01T06:41:50.126Z,4.48
2019-04-01T06:42:50.722Z,4.64
2019-04-01T06:43:50.583Z,4.97
2019-04-01T06:44:50.575Z,5.24
2019-04-01T06:45:50.306Z,5.6
2019-04-01T06:46:50.538Z,5.7
2019-04-01T06:47:50.522Z,5.7
2019-04-01T06:48:50.260Z,5.95
2019-04-01T06:49:50.488Z,6.05
2019-04-01T06:50:50.474Z,6.26
2019-04-01T06:51:50.460Z,6.55
2019-04-01T06:52:50.446Z,6.9
2019-04-01T06:53:50.429Z,7.18
2019-04-01T06:54:50.431Z,7.33
2019-04-01T06:55:50.413Z,7.36
2019-04-01T06:56:50.384Z,7.44
2019-04-01T06:57:50.371Z,7.82
2019-04-01T06:58:50.361Z,8.13
2019-04-01T06:59:50.345Z,8.34
2019-04-01T07:00:50.329Z,8.43
2019-04-01T07:01:50.321Z,8.62
2019-04-01T07:02:50.301Z,9.05
2019-04-01T07:03:50.286Z,9.16
2019-04-01T07:04:50.269Z,9.48
2019-04-01T07:05:50.009Z,10.02
2019-04-01T07:06:49.997Z,10.44
2019-04-01T07:07:49.981Z,10.79
2019-04-01T07:08:49.969Z,11.16
2019-04-01T07:09:53.196Z,11.66
2019-04-01T07:10:50.200Z,11.88
2019-04-01T07:11:50.329Z,12
2019-04-01T07:12:50.158Z,12.03
2019-04-01T07:13:50.148Z,12.16
2019-04-01T07:14:50.213Z,12.44
2019-04-01T07:15:50.118Z,12.59
2019-04-01T07:16:49.869Z,12.52
2019-04-01T07:17:50.110Z,12.33
2019-04-01T07:18:49.851Z,12.08
2019-04-01T07:19:50.068Z,12
2019-04-01T07:20:50.059Z,11.98
2019-04-01T07:21:50.042Z,11.88
2019-04-01T07:22:49.798Z,11.56
2019-04-01T07:23:49.771Z,11.38
2019-04-01T07:24:50.005Z,11.05
2019-04-01T07:25:49.749Z,10.67
2019-04-01T07:26:49.987Z,10.33
2019-04-01T07:27:49.967Z,10.05
2019-04-01T07:28:49.957Z,9.96
2019-04-01T07:29:49.941Z,9.67
2019-04-01T07:30:49.933Z,9.55
2019-04-01T07:31:49.674Z,9.53
2019-04-01T07:32:49.905Z,9.48
2019-04-01T07:33:49.913Z,9.44
2019-04-01T07:34:49.877Z,9.35
2019-04-01T07:35:51.607Z,9.3
2019-04-01T07:36:49.859Z,9.21
2019-04-01T07:37:49.845Z,9.16
2019-04-01T07:38:49.842Z,9.16
2019-04-01T07:39:49.826Z,9.17
2019-04-01T07:40:49.566Z,9.23
2019-04-01T07:41:49.794Z,9.21
2019-04-01T07:42:49.778Z,9.01
2019-04-01T07:43:49.613Z,9
2019-04-01T07:44:49.758Z,9.01
2019-04-01T07:45:49.751Z,9.01
2019-04-01T07:46:49.729Z,9.05
2019-04-01T07:47:51.574Z,9.03
2019-04-01T07:48:49.713Z,9.03
2019-04-01T07:49:49.725Z,9.04
2019-04-01T07:50:49.733Z,8.95
2019-04-01T07:51:49.680Z,8.98
2019-04-01T07:52:49.663Z,9.14
2019-04-01T07:53:49.651Z,9.16
2019-04-01T07:54:49.640Z,9.08
2019-04-01T07:55:49.710Z,9.17
2019-04-01T07:56:49.633Z,9.2
2019-04-01T07:57:49.614Z,9.34
2019-04-01T07:58:49.591Z,9.34
2019-04-01T07:59:49.587Z,9.37
2019-04-01T08:00:49.318Z,9.42
2019-04-01T08:01:52.636Z,9.41
2019-04-01T08:02:51.467Z,9.47
2019-04-01T08:03:49.532Z,9.5
2019-04-01T08:04:49.529Z,9.55
2019-04-01T08:05:49.517Z,9.63
2019-04-01T08:06:49.500Z,9.72
2019-04-01T08:07:49.492Z,9.8
2019-04-01T08:08:51.207Z,9.8
2019-04-01T08:09:49.465Z,9.8
2019-04-01T08:10:49.461Z,9.72
2019-04-01T08:11:52.354Z,9.64
2019-04-01T08:12:49.430Z,9.75
2019-04-01T08:13:49.421Z,9.59
2019-04-01T08:14:49.407Z,9.56
2019-04-01T08:15:49.401Z,9.63
2019-04-01T08:16:49.390Z,9.72
2019-04-01T08:17:49.375Z,9.66
2019-04-01T08:18:49.364Z,9.59
2019-04-01T08:19:49.356Z,9.48
2019-04-01T08:20:49.341Z,9.5
2019-04-01T08:21:52.188Z,9.56
2019-04-01T08:22:49.327Z,9.57
2019-04-01T08:23:49.068Z,9.57
2019-04-01T08:24:49.299Z,9.71
2019-04-01T08:25:52.787Z,9.8
2019-04-01T08:26:49.273Z,9.82
2019-04-01T08:27:49.263Z,9.78
2019-04-01T08:28:49.254Z,9.93
2019-04-01T08:29:48.993Z,10.03
2019-04-01T08:30:49.231Z,10.15
2019-04-01T08:31:48.976Z,10.35
2019-04-01T08:32:49.205Z,10.25
2019-04-01T08:33:52.710Z,10.13
2019-04-01T08:34:49.199Z,10.11
2019-04-01T08:35:49.173Z,10.15
2019-04-01T08:36:49.158Z,10.15
2019-04-01T08:37:49.154Z,10.26
2019-04-01T08:38:48.888Z,10.31
2019-04-01T08:39:48.884Z,10.38
2019-04-01T08:40:49.115Z,10.47
2019-04-01T08:41:49.104Z,10.57
2019-04-01T08:42:51.486Z,10.59
2019-04-01T08:43:49.083Z,10.57
2019-04-01T08:44:49.073Z,10.7
2019-04-01T08:45:49.060Z,10.72
2019-04-01T08:46:48.812Z,10.75
2019-04-01T08:47:48.792Z,10.73
2019-04-01T08:48:49.029Z,10.8
2019-04-01T08:49:49.018Z,10.84
2019-04-01T08:50:49.007Z,10.91
2019-04-01T08:51:48.999Z,10.92
2019-04-01T08:52:48.989Z,11
2019-04-01T08:53:48.978Z,11.08
2019-04-01T08:54:51.982Z,11.13
2019-04-01T08:55:48.960Z,11.03
2019-04-01T08:56:48.952Z,10.95
2019-04-01T08:57:48.689Z,10.9
2019-04-01T08:58:48.922Z,10.91
2019-04-01T08:59:48.922Z,10.94
2019-04-01T09:00:48.966Z,10.8
2019-04-01T09:01:48.889Z,10.9
2019-04-01T09:02:48.889Z,11.09
2019-04-01T09:03:48.871Z,11.05
2019-04-01T09:04:48.871Z,11.15
2019-04-01T09:05:49.091Z,11.15
2019-04-01T09:06:48.840Z,11.23
2019-04-01T09:07:48.831Z,11.34
2019-04-01T09:08:48.825Z,11.39
2019-04-01T09:09:48.804Z,11.6
2019-04-01T09:10:48.807Z,11.61
2019-04-01T09:11:48.783Z,11.68
2019-04-01T09:12:48.781Z,11.63
2019-04-01T09:13:48.818Z,11.78
2019-04-01T09:14:48.755Z,11.7
2019-04-01T09:15:48.758Z,11.67
2019-04-01T09:16:48.888Z,11.59
2019-04-01T09:17:48.481Z,11.56
2019-04-01T09:18:48.716Z,11.68
2019-04-01T09:19:48.461Z,11.61
2019-04-01T09:20:48.693Z,11.64
2019-04-01T09:21:48.437Z,11.53
2019-04-01T09:22:48.674Z,11.59
2019-04-01T09:23:51.967Z,11.3
2019-04-01T09:24:48.662Z,11.02
2019-04-01T09:25:48.646Z,10.87
2019-04-01T09:26:48.632Z,10.8
2019-04-01T09:27:48.685Z,10.83
2019-04-01T09:28:48.378Z,10.87
2019-04-01T09:29:48.620Z,10.92
2019-04-01T09:30:48.604Z,11.03
2019-04-01T09:31:48.342Z,11.03
2019-04-01T09:32:48.332Z,11.1
2019-04-01T09:33:48.326Z,11.16
2019-04-01T09:34:48.558Z,11.33
2019-04-01T09:35:48.545Z,11.35
2019-04-01T09:36:48.784Z,11.46
2019-04-01T09:37:48.529Z,11.63
2019-04-01T09:38:48.516Z,11.63
2019-04-01T09:39:48.263Z,11.76
2019-04-01T09:40:48.496Z,11.67
2019-04-01T09:41:48.589Z,11.67
2019-04-01T09:42:48.532Z,11.59
2019-04-01T09:43:48.471Z,11.43
2019-04-01T09:44:48.459Z,11.24
2019-04-01T09:45:48.446Z,11.27
2019-04-01T09:46:51.478Z,11.35
2019-04-01T09:47:48.440Z,11.49
2019-04-01T09:48:48.414Z,11.46
2019-04-01T09:49:48.407Z,11.52
2019-04-01T09:50:48.153Z,11.56
2019-04-01T09:51:53.748Z,11.63
2019-04-01T09:52:48.394Z,11.52
2019-04-01T09:53:48.366Z,11.56
2019-04-01T09:54:48.358Z,11.59
2019-04-01T09:55:48.104Z,11.71
2019-04-01T09:56:48.340Z,11.84
2019-04-01T09:57:48.336Z,11.98
2019-04-01T09:58:48.142Z,11.84
2019-04-01T09:59:48.314Z,11.75
2019-04-01T10:00:48.306Z,11.64
2019-04-01T10:01:48.302Z,11.75
2019-04-01T10:02:48.286Z,11.73
2019-04-01T10:03:48.281Z,11.88
2019-04-01T10:04:48.263Z,11.91
2019-04-01T10:05:48.250Z,11.94
2019-04-01T10:06:48.251Z,12
2019-04-01T10:07:48.524Z,12.03
2019-04-01T10:08:48.228Z,11.97
2019-04-01T10:09:47.976Z,12.07
2019-04-01T10:10:48.208Z,12.18
2019-04-01T10:11:48.199Z,12.33
2019-04-01T10:12:48.193Z,12.44
2019-04-01T10:13:48.181Z,12.55
2019-04-01T10:14:48.170Z,12.65
2019-04-01T10:15:48.159Z,12.63
2019-04-01T10:16:48.155Z,12.76
2019-04-01T10:17:48.143Z,12.94
2019-04-01T10:18:48.143Z,13.1
2019-04-01T10:19:48.126Z,12.89
2019-04-01T10:20:48.127Z,12.8
2019-04-01T10:21:50.186Z,12.74
2019-04-01T10:22:48.117Z,12.78
2019-04-01T10:23:48.104Z,12.8
2019-04-01T10:24:48.084Z,12.83
2019-04-01T10:25:51.076Z,12.84
2019-04-01T10:26:48.083Z,12.81
2019-04-01T10:27:48.059Z,12.89
2019-04-01T10:28:48.047Z,12.88
2019-04-01T10:29:48.042Z,12.96
2019-04-01T10:30:47.786Z,13.09
2019-04-01T10:31:48.017Z,13.21
2019-04-01T10:32:48.024Z,13.28
2019-04-01T10:33:48.005Z,13.31
2019-04-01T10:34:48.003Z,13.37
2019-04-01T10:35:47.989Z,13.4
2019-04-01T10:36:48.015Z,13.24
2019-04-01T10:37:47.998Z,13.2
2019-04-01T10:38:51.425Z,13.24
2019-04-01T10:39:47.951Z,13.35
2019-04-01T10:40:47.951Z,13.36
2019-04-01T10:41:47.947Z,13.37
2019-04-01T10:42:47.934Z,13.48
2019-04-01T10:43:47.938Z,13.55
2019-04-01T10:44:47.915Z,13.65
2019-04-01T10:45:47.918Z,13.62
2019-04-01T10:46:48.176Z,13.66
2019-04-01T10:47:47.778Z,13.78
2019-04-01T10:48:48.053Z,13.83
2019-04-01T10:49:48.069Z,13.75
2019-04-01T10:50:47.954Z,13.78
2019-04-01T10:51:48.008Z,13.83
2019-04-01T10:52:49.147Z,13.83
2019-04-01T10:53:48.023Z,13.95
2019-04-01T10:54:48.050Z,13.97
2019-04-01T10:55:47.905Z,13.99
2019-04-01T10:56:47.959Z,13.9
2019-04-01T10:57:48.566Z,13.99
2019-04-01T10:58:47.822Z,14.15
2019-04-01T10:59:47.970Z,14.24
2019-04-01T11:00:47.650Z,14.28
2019-04-01T11:01:47.865Z,14.24
2019-04-01T11:02:50.010Z,14.13
2019-04-01T11:03:47.993Z,14.24
2019-04-01T11:04:47.833Z,14.24
2019-04-01T11:05:47.800Z,14.24
2019-04-01T11:06:47.847Z,14.2
2019-04-01T11:07:47.959Z,14.15
2019-04-01T11:08:47.900Z,14.19
2019-04-01T11:09:47.487Z,14.11
2019-04-01T11:10:47.718Z,14.12
2019-04-01T11:11:47.712Z,14.11
2019-04-01T11:12:47.712Z,14.08
2019-04-01T11:13:51.343Z,13.87
2019-04-01T11:14:47.695Z,13.81
2019-04-01T11:15:48.128Z,13.68
2019-04-01T11:16:48.631Z,13.54
2019-04-01T11:17:51.982Z,13.6
2019-04-01T11:18:47.672Z,13.48
2019-04-01T11:19:47.709Z,13.32
2019-04-01T11:20:47.652Z,13.19
2019-04-01T11:21:47.398Z,13.25
2019-04-01T11:22:47.641Z,13.31
2019-04-01T11:23:47.653Z,13.32
2019-04-01T11:24:47.653Z,13.39
2019-04-01T11:25:47.381Z,13.36
2019-04-01T11:26:47.608Z,13.36
2019-04-01T11:27:47.605Z,13.4
2019-04-01T11:28:47.600Z,13.42
2019-04-01T11:29:47.589Z,13.39
2019-04-01T11:30:47.646Z,13.31
2019-04-01T11:31:47.645Z,13.31
2019-04-01T11:32:47.659Z,13.42
2019-04-01T11:33:47.664Z,13.45
2019-04-01T11:34:47.765Z,13.68
2019-04-01T11:35:48.446Z,13.94
2019-04-01T11:36:48.201Z,14.06
2019-04-01T11:37:47.622Z,14.15
2019-04-01T11:38:47.849Z,14.12
2019-04-01T11:39:47.583Z,14.06
2019-04-01T11:40:48.818Z,14.01
2019-04-01T11:41:47.628Z,14.01
2019-04-01T11:42:47.289Z,13.99
2019-04-01T11:43:47.624Z,13.93
2019-04-01T11:44:47.570Z,13.91
2019-04-01T11:45:47.608Z,14.01
2019-04-01T11:46:47.547Z,13.88
2019-04-01T11:47:47.432Z,13.94
2019-04-01T11:48:47.637Z,13.97
2019-04-01T11:49:47.526Z,14.02
2019-04-01T11:50:50.280Z,14.06
2019-04-01T11:51:47.498Z,14.2
2019-04-01T11:52:47.488Z,14.26
2019-04-01T11:53:47.409Z,14.44
2019-04-01T11:54:47.406Z,14.51
2019-04-01T11:55:47.392Z,14.59
2019-04-01T11:56:47.141Z,14.51
2019-04-01T11:57:47.380Z,14.52
2019-04-01T11:58:46.888Z,14.49
2019-04-01T11:59:47.361Z,14.44
2019-04-01T12:00:47.366Z,14.34
2019-04-01T12:01:47.754Z,14.26
2019-04-01T12:02:48.621Z,14.24
2019-04-01T12:03:47.334Z,14.2
2019-04-01T12:04:47.332Z,14.09
2019-04-01T12:05:47.321Z,13.95
2019-04-01T12:06:47.326Z,14.03
2019-04-01T12:07:47.312Z,13.86
2019-04-01T12:08:47.298Z,13.73
2019-04-01T12:09:47.054Z,13.69
2019-04-01T12:10:47.283Z,13.55
2019-04-01T12:11:47.033Z,13.54
2019-04-01T12:12:47.272Z,13.53
2019-04-01T12:13:47.019Z,13.42
2019-04-01T12:14:47.258Z,13.29
2019-04-01T12:15:47.251Z,13.31
2019-04-01T12:16:46.998Z,13.21
2019-04-01T12:17:47.248Z,13.17
2019-04-01T12:18:47.469Z,13.21
2019-04-01T12:19:47.219Z,13.14
2019-04-01T12:20:47.209Z,13.19
2019-04-01T12:21:46.954Z,13.09
2019-04-01T12:22:50.623Z,13.01
2019-04-01T12:23:47.189Z,13.09
2019-04-01T12:24:46.931Z,13.03
2019-04-01T12:25:47.177Z,12.95
2019-04-01T12:26:47.411Z,12.95
2019-04-01T12:27:47.679Z,12.96
2019-04-01T12:28:48.296Z,12.96
2019-04-01T12:29:50.618Z,12.98
2019-04-01T12:30:47.131Z,13.01
2019-04-01T12:31:47.123Z,12.92
2019-04-01T12:32:46.876Z,12.86
2019-04-01T12:33:47.718Z,12.8
2019-04-01T12:34:47.173Z,12.8
2019-04-01T12:35:47.094Z,12.65
2019-04-01T12:36:47.136Z,12.63
2019-04-01T12:37:48.289Z,12.58
2019-04-01T12:38:46.825Z,12.55
2019-04-01T12:39:47.063Z,12.55
2019-04-01T12:40:47.056Z,12.44
2019-04-01T12:41:47.531Z,12.4
2019-04-01T12:42:50.773Z,12.53
2019-04-01T12:43:47.033Z,12.52
2019-04-01T12:44:47.027Z,12.61
2019-04-01T12:45:47.012Z,12.55
2019-04-01T12:46:47.022Z,12.59
2019-04-01T12:47:48.289Z,12.71
2019-04-01T12:48:46.996Z,12.76
2019-04-01T12:49:46.996Z,12.73
2019-04-01T12:50:46.974Z,12.76
2019-04-01T12:51:46.721Z,12.81
2019-04-01T12:52:47.056Z,12.84
2019-04-01T12:53:48.293Z,12.92
2019-04-01T12:54:47.143Z,12.91
2019-04-01T12:55:49.790Z,12.91
2019-04-01T12:56:46.951Z,12.89
2019-04-01T12:57:50.935Z,12.86
2019-04-01T12:58:46.968Z,12.92
2019-04-01T12:59:50.638Z,12.88
2019-04-01T13:00:46.904Z,12.89
2019-04-01T13:01:46.888Z,12.88
2019-04-01T13:02:46.895Z,12.92
2019-04-01T13:03:46.866Z,12.96
2019-04-01T13:04:50.799Z,13.13
2019-04-01T13:05:46.848Z,13.21
2019-04-01T13:06:46.841Z,13.27
2019-04-01T13:07:46.840Z,13.48
2019-04-01T13:08:46.825Z,13.47
2019-04-01T13:09:46.819Z,13.42
2019-04-01T13:10:46.819Z,13.5
2019-04-01T13:11:46.804Z,13.44